sensor_id;sensor_type;location;lat;lon;timestamp;pressure;altitude;pressure_sealevel;temperature;humidity
14343;BME280;7255;53.596;9.960;2024-02-23T00:01:17;97608.31;;;9.32;nan
14343;BME280;7255;53.596;9.960;2024-02-23T00:03:43;97597.41;;;9.29;nan
14343;BME280;7255;53.596;9.960;2024-02-23T00:06:10;97594.81;;;9.23;nan
14343;BME280;7255;53.596;9.960;2024-02-23T00:08:38;97612.62;;;9.14;nan
14343;BME280;7255;53.596;9.960;2024-02-23T00:11:06;97601.09;;;9.14;nan
14343;BME280;7255;53.596;9.960;2024-02-23T00:13:32;97583.81;;;9.06;nan
14343;BME280;7255;53.596;9.960;2024-02-23T00:15:58;97604.66;;;9.09;nan
14343;BME280;7255;53.596;9.960;2024-02-23T00:18:25;97632.41;;;8.99;nan
14343;BME280;7255;53.596;9.960;2024-02-23T00:20:51;97645.03;;;8.94;nan
14343;BME280;7255;53.596;9.960;2024-02-23T00:23:17;97652.44;;;9.02;nan
14343;BME280;7255;53.596;9.960;2024-02-23T00:25:45;97644.91;;;9.04;nan
14343;BME280;7255;53.596;9.960;2024-02-23T00:28:11;97644.69;;;9.00;nan
14343;BME280;7255;53.596;9.960;2024-02-23T00:30:38;97654.59;;;9.00;nan
14343;BME280;7255;53.596;9.960;2024-02-23T00:33:04;97672.69;;;9.08;nan
14343;BME280;7255;53.596;9.960;2024-02-23T00:35:31;97668.94;;;9.09;nan
14343;BME280;7255;53.596;9.960;2024-02-23T00:37:57;97645.13;;;9.08;nan
14343;BME280;7255;53.596;9.960;2024-02-23T00:40:23;97671.69;;;9.04;nan
14343;BME280;7255;53.596;9.960;2024-02-23T00:42:51;97683.63;;;9.12;nan
14343;BME280;7255;53.596;9.960;2024-02-23T00:45:17;97673.50;;;9.09;nan
14343;BME280;7255;53.596;9.960;2024-02-23T00:47:43;97687.19;;;9.07;nan
14343;BME280;7255;53.596;9.960;2024-02-23T00:50:11;97691.53;;;8.79;nan
14343;BME280;7255;53.596;9.960;2024-02-23T00:52:37;97755.72;;;7.96;nan
14343;BME280;7255;53.596;9.960;2024-02-23T00:55:03;97723.63;;;7.27;nan
14343;BME280;7255;53.596;9.960;2024-02-23T00:57:29;97734.44;;;6.97;nan
14343;BME280;7255;53.596;9.960;2024-02-23T00:59:57;97727.06;;;6.78;nan
14343;BME280;7255;53.596;9.960;2024-02-23T01:02:23;97726.53;;;6.71;nan
14343;BME280;7255;53.596;9.960;2024-02-23T01:04:50;97740.94;;;6.70;nan
14343;BME280;7255;53.596;9.960;2024-02-23T01:07:21;97747.31;;;6.74;nan
14343;BME280;7255;53.596;9.960;2024-02-23T01:09:47;97764.16;;;6.64;nan
14343;BME280;7255;53.596;9.960;2024-02-23T01:12:14;97764.94;;;6.75;nan
14343;BME280;7255;53.596;9.960;2024-02-23T01:14:40;97784.69;;;6.74;nan
14343;BME280;7255;53.596;9.960;2024-02-23T01:17:07;97796.44;;;6.68;nan
14343;BME280;7255;53.596;9.960;2024-02-23T01:19:33;97814.06;;;6.69;nan
14343;BME280;7255;53.596;9.960;2024-02-23T01:22:00;97797.53;;;6.62;nan
14343;BME280;7255;53.596;9.960;2024-02-23T01:24:26;97812.47;;;6.58;nan
14343;BME280;7255;53.596;9.960;2024-02-23T01:26:54;97832.75;;;6.53;nan
14343;BME280;7255;53.596;9.960;2024-02-23T01:29:20;97842.34;;;6.60;nan
14343;BME280;7255;53.596;9.960;2024-02-23T01:31:47;97837.03;;;6.60;nan
14343;BME280;7255;53.596;9.960;2024-02-23T01:34:15;97854.88;;;6.64;nan
14343;BME280;7255;53.596;9.960;2024-02-23T01:36:41;97862.09;;;6.59;nan
14343;BME280;7255;53.596;9.960;2024-02-23T01:39:07;97874.63;;;6.63;nan
14343;BME280;7255;53.596;9.960;2024-02-23T01:41:33;97877.53;;;6.72;nan
14343;BME280;7255;53.596;9.960;2024-02-23T01:43:59;97887.16;;;6.78;nan
14343;BME280;7255;53.596;9.960;2024-02-23T01:46:26;97917.03;;;6.80;nan
14343;BME280;7255;53.596;9.960;2024-02-23T01:48:52;97906.88;;;6.77;nan
14343;BME280;7255;53.596;9.960;2024-02-23T01:51:20;97921.84;;;6.73;nan
14343;BME280;7255;53.596;9.960;2024-02-23T01:53:47;97933.03;;;6.80;nan
14343;BME280;7255;53.596;9.960;2024-02-23T01:56:13;97943.19;;;6.83;nan
14343;BME280;7255;53.596;9.960;2024-02-23T01:58:42;97941.06;;;6.85;nan
14343;BME280;7255;53.596;9.960;2024-02-23T02:01:09;97957.31;;;6.79;nan
14343;BME280;7255;53.596;9.960;2024-02-23T02:03:36;97959.72;;;6.80;nan
14343;BME280;7255;53.596;9.960;2024-02-23T02:06:02;97981.59;;;6.77;nan
14343;BME280;7255;53.596;9.960;2024-02-23T02:08:30;97998.13;;;6.74;nan
14343;BME280;7255;53.596;9.960;2024-02-23T02:10:56;98007.25;;;6.83;nan
14343;BME280;7255;53.596;9.960;2024-02-23T02:13:22;98032.81;;;6.79;nan
14343;BME280;7255;53.596;9.960;2024-02-23T02:15:49;98030.16;;;6.84;nan
14343;BME280;7255;53.596;9.960;2024-02-23T02:18:15;98025.34;;;6.61;nan
14343;BME280;7255;53.596;9.960;2024-02-23T02:20:45;98042.41;;;6.65;nan
14343;BME280;7255;53.596;9.960;2024-02-23T02:23:14;98047.47;;;6.51;nan
14343;BME280;7255;53.596;9.960;2024-02-23T02:25:42;98045.00;;;6.39;nan
14343;BME280;7255;53.596;9.960;2024-02-23T02:28:08;98049.56;;;6.39;nan
14343;BME280;7255;53.596;9.960;2024-02-23T02:30:34;98073.06;;;6.47;nan
14343;BME280;7255;53.596;9.960;2024-02-23T02:33:00;98084.53;;;6.47;nan
14343;BME280;7255;53.596;9.960;2024-02-23T02:35:26;98079.69;;;6.34;nan
14343;BME280;7255;53.596;9.960;2024-02-23T02:37:52;98079.13;;;6.27;nan
14343;BME280;7255;53.596;9.960;2024-02-23T02:40:19;98091.34;;;6.18;nan
14343;BME280;7255;53.596;9.960;2024-02-23T02:42:46;98082.53;;;6.12;nan
14343;BME280;7255;53.596;9.960;2024-02-23T02:45:12;98105.16;;;6.09;nan
14343;BME280;7255;53.596;9.960;2024-02-23T02:47:39;98111.53;;;6.03;nan
14343;BME280;7255;53.596;9.960;2024-02-23T02:50:05;98113.13;;;6.04;nan
14343;BME280;7255;53.596;9.960;2024-02-23T02:52:32;98115.53;;;6.06;nan
14343;BME280;7255;53.596;9.960;2024-02-23T02:54:58;98101.03;;;5.86;nan
14343;BME280;7255;53.596;9.960;2024-02-23T02:57:24;98127.38;;;5.83;nan
14343;BME280;7255;53.596;9.960;2024-02-23T02:59:52;98118.81;;;5.81;nan
14343;BME280;7255;53.596;9.960;2024-02-23T03:02:18;98149.19;;;5.79;nan
14343;BME280;7255;53.596;9.960;2024-02-23T03:04:47;98154.53;;;5.79;nan
14343;BME280;7255;53.596;9.960;2024-02-23T03:07:14;98155.13;;;5.87;nan
14343;BME280;7255;53.596;9.960;2024-02-23T03:09:40;98159.66;;;5.86;nan
14343;BME280;7255;53.596;9.960;2024-02-23T03:12:06;98174.16;;;5.68;nan
14343;BME280;7255;53.596;9.960;2024-02-23T03:14:32;98156.66;;;5.77;nan
14343;BME280;7255;53.596;9.960;2024-02-23T03:17:00;98177.97;;;5.77;nan
14343;BME280;7255;53.596;9.960;2024-02-23T03:19:26;98124.16;;;5.81;nan
14343;BME280;7255;53.596;9.960;2024-02-23T03:21:52;98170.22;;;5.76;nan
14343;BME280;7255;53.596;9.960;2024-02-23T03:24:19;98195.78;;;5.72;nan
14343;BME280;7255;53.596;9.960;2024-02-23T03:26:45;98132.63;;;5.72;nan
14343;BME280;7255;53.596;9.960;2024-02-23T03:29:11;98209.41;;;5.81;nan
14343;BME280;7255;53.596;9.960;2024-02-23T03:31:37;98191.25;;;5.72;nan
14343;BME280;7255;53.596;9.960;2024-02-23T03:34:05;98223.72;;;5.69;nan
14343;BME280;7255;53.596;9.960;2024-02-23T03:36:31;98233.88;;;5.72;nan
14343;BME280;7255;53.596;9.960;2024-02-23T03:38:57;98233.78;;;5.62;nan
14343;BME280;7255;53.596;9.960;2024-02-23T03:41:23;98242.34;;;5.64;nan
14343;BME280;7255;53.596;9.960;2024-02-23T03:43:49;98230.56;;;5.60;nan
14343;BME280;7255;53.596;9.960;2024-02-23T03:46:15;98226.06;;;5.61;nan
14343;BME280;7255;53.596;9.960;2024-02-23T03:48:42;98243.25;;;5.48;nan
14343;BME280;7255;53.596;9.960;2024-02-23T03:51:10;98256.81;;;5.46;nan
14343;BME280;7255;53.596;9.960;2024-02-23T03:53:36;98262.75;;;5.53;nan
14343;BME280;7255;53.596;9.960;2024-02-23T03:56:03;98262.03;;;5.36;nan
14343;BME280;7255;53.596;9.960;2024-02-23T03:58:29;98283.00;;;5.32;nan
14343;BME280;7255;53.596;9.960;2024-02-23T04:00:55;98267.84;;;5.33;nan
14343;BME280;7255;53.596;9.960;2024-02-23T04:03:21;98268.53;;;5.23;nan
14343;BME280;7255;53.596;9.960;2024-02-23T04:05:48;98294.16;;;5.29;nan
14343;BME280;7255;53.596;9.960;2024-02-23T04:08:16;98273.38;;;5.26;nan
14343;BME280;7255;53.596;9.960;2024-02-23T04:10:42;98279.50;;;5.27;nan
14343;BME280;7255;53.596;9.960;2024-02-23T04:13:08;98283.59;;;5.12;nan
14343;BME280;7255;53.596;9.960;2024-02-23T04:15:36;98279.44;;;4.99;nan
14343;BME280;7255;53.596;9.960;2024-02-23T04:18:03;98296.50;;;5.04;nan
14343;BME280;7255;53.596;9.960;2024-02-23T04:20:29;98297.03;;;5.00;nan
14343;BME280;7255;53.596;9.960;2024-02-23T04:22:55;98302.97;;;5.08;nan
14343;BME280;7255;53.596;9.960;2024-02-23T04:25:23;98315.03;;;5.15;nan
14343;BME280;7255;53.596;9.960;2024-02-23T04:27:49;98319.66;;;5.25;nan
14343;BME280;7255;53.596;9.960;2024-02-23T04:30:15;98331.44;;;5.29;nan
14343;BME280;7255;53.596;9.960;2024-02-23T04:32:42;98347.34;;;5.46;nan
14343;BME280;7255;53.596;9.960;2024-02-23T04:35:09;98322.00;;;5.44;nan
14343;BME280;7255;53.596;9.960;2024-02-23T04:37:35;98339.59;;;5.45;nan
14343;BME280;7255;53.596;9.960;2024-02-23T04:40:02;98348.47;;;5.50;nan
14343;BME280;7255;53.596;9.960;2024-02-23T04:42:30;98340.53;;;5.55;nan
14343;BME280;7255;53.596;9.960;2024-02-23T04:44:56;98358.09;;;5.56;nan
14343;BME280;7255;53.596;9.960;2024-02-23T04:47:23;98361.13;;;5.65;nan
14343;BME280;7255;53.596;9.960;2024-02-23T04:49:49;98368.97;;;5.50;nan
14343;BME280;7255;53.596;9.960;2024-02-23T04:52:15;98361.22;;;5.48;nan
14343;BME280;7255;53.596;9.960;2024-02-23T04:54:41;98355.28;;;5.41;nan
14343;BME280;7255;53.596;9.960;2024-02-23T04:57:08;98367.72;;;5.35;nan
14343;BME280;7255;53.596;9.960;2024-02-23T04:59:35;98377.37;;;5.42;nan
14343;BME280;7255;53.596;9.960;2024-02-23T05:02:02;98384.31;;;5.43;nan
14343;BME280;7255;53.596;9.960;2024-02-23T05:04:28;98358.19;;;5.39;nan
14343;BME280;7255;53.596;9.960;2024-02-23T05:06:54;98388.66;;;5.49;nan
14343;BME280;7255;53.596;9.960;2024-02-23T05:09:20;98395.47;;;5.39;nan
14343;BME280;7255;53.596;9.960;2024-02-23T05:11:47;98379.50;;;5.39;nan
14343;BME280;7255;53.596;9.960;2024-02-23T05:14:13;98404.81;;;5.42;nan
14343;BME280;7255;53.596;9.960;2024-02-23T05:16:41;98401.91;;;5.44;nan
14343;BME280;7255;53.596;9.960;2024-02-23T05:19:07;98402.41;;;5.40;nan
14343;BME280;7255;53.596;9.960;2024-02-23T05:21:34;98402.53;;;5.51;nan
14343;BME280;7255;53.596;9.960;2024-02-23T05:24:00;98412.38;;;5.50;nan
14343;BME280;7255;53.596;9.960;2024-02-23T05:26:26;98415.28;;;5.49;nan
14343;BME280;7255;53.596;9.960;2024-02-23T05:28:52;98422.56;;;5.36;nan
14343;BME280;7255;53.596;9.960;2024-02-23T05:31:19;98423.41;;;5.20;nan
14343;BME280;7255;53.596;9.960;2024-02-23T05:33:46;98419.09;;;5.14;nan
14343;BME280;7255;53.596;9.960;2024-02-23T05:36:12;98416.03;;;5.05;nan
14343;BME280;7255;53.596;9.960;2024-02-23T05:38:40;98436.53;;;5.05;nan
14343;BME280;7255;53.596;9.960;2024-02-23T05:41:11;98428.44;;;5.16;nan
14343;BME280;7255;53.596;9.960;2024-02-23T05:43:37;98445.03;;;5.24;nan
14343;BME280;7255;53.596;9.960;2024-02-23T05:46:04;98460.38;;;5.33;nan
14343;BME280;7255;53.596;9.960;2024-02-23T05:48:30;98459.69;;;5.43;nan
14343;BME280;7255;53.596;9.960;2024-02-23T05:50:57;98446.13;;;5.45;nan
14343;BME280;7255;53.596;9.960;2024-02-23T05:53:23;98431.47;;;5.25;nan
14343;BME280;7255;53.596;9.960;2024-02-23T05:55:50;98447.66;;;5.18;nan
14343;BME280;7255;53.596;9.960;2024-02-23T05:58:16;98461.00;;;5.24;nan
14343;BME280;7255;53.596;9.960;2024-02-23T06:00:42;98454.72;;;5.30;nan
14343;BME280;7255;53.596;9.960;2024-02-23T06:03:08;98464.53;;;5.29;nan
14343;BME280;7255;53.596;9.960;2024-02-23T06:05:34;98466.16;;;5.30;nan
14343;BME280;7255;53.596;9.960;2024-02-23T06:08:02;98460.69;;;5.20;nan
14343;BME280;7255;53.596;9.960;2024-02-23T06:10:28;98468.63;;;5.15;nan
14343;BME280;7255;53.596;9.960;2024-02-23T06:12:54;98484.75;;;5.08;nan
14343;BME280;7255;53.596;9.960;2024-02-23T06:15:20;98480.41;;;5.02;nan
14343;BME280;7255;53.596;9.960;2024-02-23T06:17:46;98491.69;;;4.92;nan
14343;BME280;7255;53.596;9.960;2024-02-23T06:20:13;98503.47;;;4.96;nan
14343;BME280;7255;53.596;9.960;2024-02-23T06:22:39;98513.63;;;4.99;nan
14343;BME280;7255;53.596;9.960;2024-02-23T06:25:07;98519.44;;;4.96;nan
14343;BME280;7255;53.596;9.960;2024-02-23T06:27:33;98514.13;;;4.96;nan
14343;BME280;7255;53.596;9.960;2024-02-23T06:30:00;98527.50;;;5.01;nan
14343;BME280;7255;53.596;9.960;2024-02-23T06:32:26;98495.41;;;4.91;nan
14343;BME280;7255;53.596;9.960;2024-02-23T06:34:52;98497.00;;;4.92;nan
14343;BME280;7255;53.596;9.960;2024-02-23T06:37:19;98559.09;;;4.98;nan
14343;BME280;7255;53.596;9.960;2024-02-23T06:39:45;98550.88;;;4.99;nan
14343;BME280;7255;53.596;9.960;2024-02-23T06:42:17;98544.44;;;4.95;nan
14343;BME280;7255;53.596;9.960;2024-02-23T06:44:44;98555.06;;;4.95;nan
14343;BME280;7255;53.596;9.960;2024-02-23T06:47:10;98543.47;;;5.01;nan
14343;BME280;7255;53.596;9.960;2024-02-23T06:49:37;98564.94;;;5.12;nan
14343;BME280;7255;53.596;9.960;2024-02-23T06:52:03;98572.81;;;5.07;nan
14343;BME280;7255;53.596;9.960;2024-02-23T06:54:29;98575.72;;;5.05;nan
14343;BME280;7255;53.596;9.960;2024-02-23T06:56:55;98563.28;;;4.94;nan
14343;BME280;7255;53.596;9.960;2024-02-23T06:59:24;98573.47;;;4.97;nan
14343;BME280;7255;53.596;9.960;2024-02-23T07:01:51;98593.00;;;5.03;nan
14343;BME280;7255;53.596;9.960;2024-02-23T07:04:18;98594.12;;;5.07;nan
14343;BME280;7255;53.596;9.960;2024-02-23T07:06:45;98608.50;;;5.06;nan
14343;BME280;7255;53.596;9.960;2024-02-23T07:09:11;98617.38;;;5.28;nan
14343;BME280;7255;53.596;9.960;2024-02-23T07:11:37;98611.72;;;5.25;nan
14343;BME280;7255;53.596;9.960;2024-02-23T07:14:04;98634.47;;;5.32;nan
14343;BME280;7255;53.596;9.960;2024-02-23T07:16:31;98623.69;;;5.22;nan
14343;BME280;7255;53.596;9.960;2024-02-23T07:18:58;98623.69;;;5.22;nan
14343;BME280;7255;53.596;9.960;2024-02-23T07:21:24;98632.50;;;5.11;nan
14343;BME280;7255;53.596;9.960;2024-02-23T07:23:50;98634.94;;;5.12;nan
14343;BME280;7255;53.596;9.960;2024-02-23T07:26:17;98650.09;;;5.12;nan
14343;BME280;7255;53.596;9.960;2024-02-23T07:28:45;98629.78;;;5.06;nan
14343;BME280;7255;53.596;9.960;2024-02-23T07:31:11;98638.81;;;5.05;nan
14343;BME280;7255;53.596;9.960;2024-02-23T07:33:39;98650.88;;;4.95;nan
14343;BME280;7255;53.596;9.960;2024-02-23T07:36:05;98639.09;;;4.91;nan
14343;BME280;7255;53.596;9.960;2024-02-23T07:38:33;98664.63;;;5.04;nan
14343;BME280;7255;53.596;9.960;2024-02-23T07:41:00;98632.84;;;5.14;nan
14343;BME280;7255;53.596;9.960;2024-02-23T07:43:26;98657.03;;;5.13;nan
14343;BME280;7255;53.596;9.960;2024-02-23T07:45:54;98645.88;;;4.99;nan
14343;BME280;7255;53.596;9.960;2024-02-23T07:48:20;98666.38;;;4.98;nan
14343;BME280;7255;53.596;9.960;2024-02-23T07:50:48;98665.56;;;4.98;nan
14343;BME280;7255;53.596;9.960;2024-02-23T07:53:14;98670.75;;;5.05;nan
14343;BME280;7255;53.596;9.960;2024-02-23T07:55:40;98662.06;;;5.09;nan
14343;BME280;7255;53.596;9.960;2024-02-23T07:58:06;98673.50;;;5.10;nan
14343;BME280;7255;53.596;9.960;2024-02-23T08:00:31;98676.25;;;5.15;nan
14343;BME280;7255;53.596;9.960;2024-02-23T08:03:00;98693.84;;;5.16;nan
14343;BME280;7255;53.596;9.960;2024-02-23T08:05:26;98699.34;;;5.26;nan
14343;BME280;7255;53.596;9.960;2024-02-23T08:07:53;98691.47;;;5.31;nan
14343;BME280;7255;53.596;9.960;2024-02-23T08:10:19;98700.47;;;5.30;nan
14343;BME280;7255;53.596;9.960;2024-02-23T08:12:46;98714.22;;;5.39;nan
14343;BME280;7255;53.596;9.960;2024-02-23T08:15:12;98697.91;;;5.35;nan
14343;BME280;7255;53.596;9.960;2024-02-23T08:17:38;98699.50;;;5.36;nan
14343;BME280;7255;53.596;9.960;2024-02-23T08:20:04;98716.81;;;5.51;nan
14343;BME280;7255;53.596;9.960;2024-02-23T08:22:31;98696.63;;;5.55;nan
14343;BME280;7255;53.596;9.960;2024-02-23T08:24:58;98718.91;;;5.66;nan
14343;BME280;7255;53.596;9.960;2024-02-23T08:27:24;98709.75;;;5.73;nan
14343;BME280;7255;53.596;9.960;2024-02-23T08:29:51;98731.69;;;5.81;nan
14343;BME280;7255;53.596;9.960;2024-02-23T08:32:17;98710.06;;;5.77;nan
14343;BME280;7255;53.596;9.960;2024-02-23T08:34:43;98717.31;;;5.82;nan
14343;BME280;7255;53.596;9.960;2024-02-23T08:37:10;98737.84;;;5.81;nan
14343;BME280;7255;53.596;9.960;2024-02-23T08:39:37;98759.63;;;5.95;nan
14343;BME280;7255;53.596;9.960;2024-02-23T08:42:05;98750.63;;;5.96;nan
14343;BME280;7255;53.596;9.960;2024-02-23T08:44:31;98748.38;;;6.05;nan
14343;BME280;7255;53.596;9.960;2024-02-23T08:46:57;98766.94;;;6.16;nan
14343;BME280;7255;53.596;9.960;2024-02-23T08:49:23;98763.56;;;6.21;nan
14343;BME280;7255;53.596;9.960;2024-02-23T08:51:49;98771.44;;;6.33;nan
14343;BME280;7255;53.596;9.960;2024-02-23T08:54:15;98768.22;;;6.31;nan
14343;BME280;7255;53.596;9.960;2024-02-23T08:56:42;98772.25;;;6.33;nan
14343;BME280;7255;53.596;9.960;2024-02-23T08:59:09;98776.47;;;6.29;nan
14343;BME280;7255;53.596;9.960;2024-02-23T09:01:36;98774.69;;;6.35;nan
14343;BME280;7255;53.596;9.960;2024-02-23T09:04:02;98792.44;;;6.46;nan
14343;BME280;7255;53.596;9.960;2024-02-23T09:06:28;98791.28;;;6.59;nan
14343;BME280;7255;53.596;9.960;2024-02-23T09:08:54;98807.72;;;6.90;nan
14343;BME280;7255;53.596;9.960;2024-02-23T09:11:22;98819.34;;;7.01;nan
14343;BME280;7255;53.596;9.960;2024-02-23T09:13:48;98830.28;;;7.21;nan
14343;BME280;7255;53.596;9.960;2024-02-23T09:16:15;98843.06;;;7.19;nan
14343;BME280;7255;53.596;9.960;2024-02-23T09:18:42;98831.41;;;7.25;nan
14343;BME280;7255;53.596;9.960;2024-02-23T09:21:08;98832.31;;;7.36;nan
14343;BME280;7255;53.596;9.960;2024-02-23T09:23:35;98843.06;;;7.19;nan
14343;BME280;7255;53.596;9.960;2024-02-23T09:26:01;98839.03;;;7.17;nan
14343;BME280;7255;53.596;9.960;2024-02-23T09:28:29;98838.72;;;7.13;nan
14343;BME280;7255;53.596;9.960;2024-02-23T09:30:55;98840.34;;;7.14;nan
14343;BME280;7255;53.596;9.960;2024-02-23T09:33:23;98856.00;;;7.27;nan
14343;BME280;7255;53.596;9.960;2024-02-23T09:35:49;98853.44;;;7.60;nan
14343;BME280;7255;53.596;9.960;2024-02-23T09:38:16;98842.50;;;7.39;nan
14343;BME280;7255;53.596;9.960;2024-02-23T09:40:42;98859.97;;;7.47;nan
14343;BME280;7255;53.596;9.960;2024-02-23T09:43:09;98876.53;;;7.71;nan
14343;BME280;7255;53.596;9.960;2024-02-23T09:45:37;98886.03;;;7.84;nan
14343;BME280;7255;53.596;9.960;2024-02-23T09:48:04;98868.88;;;7.80;nan
14343;BME280;7255;53.596;9.960;2024-02-23T09:56:13;98905.59;;;8.17;nan
14343;BME280;7255;53.596;9.960;2024-02-23T09:58:42;98908.63;;;7.98;nan
14343;BME280;7255;53.596;9.960;2024-02-23T10:01:09;98922.19;;;8.14;nan
14343;BME280;7255;53.596;9.960;2024-02-23T10:03:36;98908.94;;;8.29;nan
14343;BME280;7255;53.596;9.960;2024-02-23T10:06:04;98917.81;;;8.35;nan
14343;BME280;7255;53.596;9.960;2024-02-23T10:08:30;98933.56;;;8.31;nan
14343;BME280;7255;53.596;9.960;2024-02-23T10:10:56;98936.44;;;8.46;nan
14343;BME280;7255;53.596;9.960;2024-02-23T10:13:24;98947.44;;;8.50;nan
14343;BME280;7255;53.596;9.960;2024-02-23T10:15:50;98952.06;;;8.60;nan
14343;BME280;7255;53.596;9.960;2024-02-23T10:18:16;98968.78;;;8.77;nan
14343;BME280;7255;53.596;9.960;2024-02-23T10:20:43;98959.13;;;8.71;nan
14343;BME280;7255;53.596;9.960;2024-02-23T10:23:09;98965.06;;;8.78;nan
14343;BME280;7255;53.596;9.960;2024-02-23T10:31:29;98980.28;;;9.05;nan
14343;BME280;7255;53.596;9.960;2024-02-23T10:33:59;98965.66;;;9.23;nan
14343;BME280;7255;53.596;9.960;2024-02-23T10:36:26;98972.41;;;9.31;nan
14343;BME280;7255;53.596;9.960;2024-02-23T10:38:56;98994.81;;;9.14;nan
14343;BME280;7255;53.596;9.960;2024-02-23T10:41:24;98992.72;;;9.27;nan
14343;BME280;7255;53.596;9.960;2024-02-23T10:43:50;98997.28;;;9.26;nan
14343;BME280;7255;53.596;9.960;2024-02-23T10:46:17;98994.19;;;9.44;nan
14343;BME280;7255;53.596;9.960;2024-02-23T10:48:46;99008.28;;;9.67;nan
14343;BME280;7255;53.596;9.960;2024-02-23T10:51:14;98955.88;;;9.44;nan
14343;BME280;7255;53.596;9.960;2024-02-23T10:53:40;98993.47;;;9.17;nan
14343;BME280;7255;53.596;9.960;2024-02-23T10:56:07;99004.50;;;9.20;nan
14343;BME280;7255;53.596;9.960;2024-02-23T10:58:33;98998.75;;;9.06;nan
14343;BME280;7255;53.596;9.960;2024-02-23T11:01:00;99025.44;;;9.23;nan
14343;BME280;7255;53.596;9.960;2024-02-23T11:03:27;99015.00;;;9.27;nan
14343;BME280;7255;53.596;9.960;2024-02-23T11:05:55;99029.25;;;9.33;nan
14343;BME280;7255;53.596;9.960;2024-02-23T11:08:21;99018.87;;;9.09;nan
14343;BME280;7255;53.596;9.960;2024-02-23T11:10:51;99024.25;;;9.09;nan
14343;BME280;7255;53.596;9.960;2024-02-23T11:13:18;99020.78;;;9.14;nan
14343;BME280;7255;53.596;9.960;2024-02-23T11:15:44;99025.94;;;9.20;nan
14343;BME280;7255;53.596;9.960;2024-02-23T11:18:22;99022.25;;;9.32;nan
14343;BME280;7255;53.596;9.960;2024-02-23T11:20:53;99006.12;;;9.21;nan
14343;BME280;7255;53.596;9.960;2024-02-23T11:23:21;99011.69;;;9.15;nan
14343;BME280;7255;53.596;9.960;2024-02-23T11:25:58;99005.16;;;9.38;nan
14343;BME280;7255;53.596;9.960;2024-02-23T11:28:24;99007.56;;;9.39;nan
14343;BME280;7255;53.596;9.960;2024-02-23T11:30:50;99007.22;;;9.25;nan
14343;BME280;7255;53.596;9.960;2024-02-23T11:33:25;99016.69;;;9.38;nan
14343;BME280;7255;53.596;9.960;2024-02-23T11:35:51;99011.78;;;9.30;nan
14343;BME280;7255;53.596;9.960;2024-02-23T11:38:17;99015.91;;;9.48;nan
14343;BME280;7255;53.596;9.960;2024-02-23T11:40:46;99027.44;;;9.49;nan
14343;BME280;7255;53.596;9.960;2024-02-23T11:43:13;99006.16;;;9.32;nan
14343;BME280;7255;53.596;9.960;2024-02-23T11:45:40;99011.59;;;9.42;nan
14343;BME280;7255;53.596;9.960;2024-02-23T11:48:06;99012.47;;;9.53;nan
14343;BME280;7255;53.596;9.960;2024-02-23T11:50:33;99010.66;;;9.69;nan
14343;BME280;7255;53.596;9.960;2024-02-23T11:52:59;99002.47;;;9.43;nan
14343;BME280;7255;53.596;9.960;2024-02-23T11:55:26;99010.44;;;9.28;nan
14343;BME280;7255;53.596;9.960;2024-02-23T11:57:53;99011.31;;;9.38;nan
14343;BME280;7255;53.596;9.960;2024-02-23T12:00:20;99002.72;;;9.36;nan
14343;BME280;7255;53.596;9.960;2024-02-23T12:02:46;99013.28;;;9.53;nan
14343;BME280;7255;53.596;9.960;2024-02-23T12:05:14;99012.06;;;9.76;nan
14343;BME280;7255;53.596;9.960;2024-02-23T12:07:40;99016.66;;;9.86;nan
14343;BME280;7255;53.596;9.960;2024-02-23T12:10:07;99005.88;;;9.76;nan
14343;BME280;7255;53.596;9.960;2024-02-23T12:12:33;98993.47;;;9.54;nan
14343;BME280;7255;53.596;9.960;2024-02-23T12:15:01;98990.50;;;9.56;nan
14343;BME280;7255;53.596;9.960;2024-02-23T12:17:27;99006.34;;;9.62;nan
14343;BME280;7255;53.596;9.960;2024-02-23T12:19:57;99003.13;;;9.60;nan
14343;BME280;7255;53.596;9.960;2024-02-23T12:22:24;99003.06;;;9.50;nan
14343;BME280;7255;53.596;9.960;2024-02-23T12:24:50;99014.94;;;9.64;nan
14343;BME280;7255;53.596;9.960;2024-02-23T12:27:16;99015.75;;;9.65;nan
14343;BME280;7255;53.596;9.960;2024-02-23T12:29:50;99004.50;;;9.68;nan
14343;BME280;7255;53.596;9.960;2024-02-23T12:32:19;99011.66;;;9.52;nan
14343;BME280;7255;53.596;9.960;2024-02-23T12:34:45;99012.53;;;9.63;nan
14343;BME280;7255;53.596;9.960;2024-02-23T12:37:14;99006.81;;;9.49;nan
14343;BME280;7255;53.596;9.960;2024-02-23T12:39:40;99030.50;;;9.20;nan
14343;BME280;7255;53.596;9.960;2024-02-23T12:42:07;99018.94;;;9.19;nan
14343;BME280;7255;53.596;9.960;2024-02-23T12:44:33;99013.97;;;9.33;nan
14343;BME280;7255;53.596;9.960;2024-02-23T12:46:59;99024.00;;;9.53;nan
14343;BME280;7255;53.596;9.960;2024-02-23T12:49:27;99002.72;;;9.36;nan
14343;BME280;7255;53.596;9.960;2024-02-23T12:51:53;99010.53;;;9.38;nan
14343;BME280;7255;53.596;9.960;2024-02-23T12:54:19;99007.12;;;9.53;nan
14343;BME280;7255;53.596;9.960;2024-02-23T12:56:46;98997.94;;;9.43;nan
14343;BME280;7255;53.596;9.960;2024-02-23T12:59:12;99017.37;;;9.66;nan
14343;BME280;7255;53.596;9.960;2024-02-23T13:01:38;98978.50;;;9.69;nan
14343;BME280;7255;53.596;9.960;2024-02-23T13:04:04;99019.84;;;9.78;nan
14343;BME280;7255;53.596;9.960;2024-02-23T13:06:36;99011.88;;;9.93;nan
14343;BME280;7255;53.596;9.960;2024-02-23T13:09:02;99028.97;;;9.77;nan
14343;BME280;7255;53.596;9.960;2024-02-23T13:11:29;99020.81;;;9.61;nan
14343;BME280;7255;53.596;9.960;2024-02-23T13:13:55;99024.87;;;9.64;nan
14343;BME280;7255;53.596;9.960;2024-02-23T13:16:21;99031.09;;;9.75;nan
14343;BME280;7255;53.596;9.960;2024-02-23T13:18:47;99023.25;;;9.63;nan
14343;BME280;7255;53.596;9.960;2024-02-23T13:21:14;99030.53;;;9.68;nan
14343;BME280;7255;53.596;9.960;2024-02-23T13:23:41;99034.31;;;9.77;nan
14343;BME280;7255;53.596;9.960;2024-02-23T13:26:08;99050.81;;;10.01;nan
14343;BME280;7255;53.596;9.960;2024-02-23T13:28:35;99033.84;;;9.90;nan
14343;BME280;7255;53.596;9.960;2024-02-23T13:31:01;99037.62;;;9.89;nan
14343;BME280;7255;53.596;9.960;2024-02-23T13:33:28;99053.75;;;9.99;nan
14343;BME280;7255;53.596;9.960;2024-02-23T13:35:54;99061.53;;;10.01;nan
14343;BME280;7255;53.596;9.960;2024-02-23T13:38:21;99039.72;;;9.87;nan
14343;BME280;7255;53.596;9.960;2024-02-23T13:40:48;99050.94;;;9.74;nan
14343;BME280;7255;53.596;9.960;2024-02-23T13:43:15;99045.44;;;9.53;nan
14343;BME280;7255;53.596;9.960;2024-02-23T13:45:47;99053.91;;;9.35;nan
14343;BME280;7255;53.596;9.960;2024-02-23T13:48:14;99051.78;;;9.37;nan
14343;BME280;7255;53.596;9.960;2024-02-23T13:50:40;99054.66;;;9.25;nan
14343;BME280;7255;53.596;9.960;2024-02-23T13:53:06;99053.09;;;9.34;nan